createdAt,value
2022-08-05T00:01:20.740Z,1005.77
2022-08-05T00:02:14.976Z,1005.78
2022-08-05T00:04:09.203Z,1005.74
2022-08-05T00:05:09.192Z,1005.74
2022-08-05T00:07:58.709Z,1005.72
2022-08-05T00:08:03.509Z,1005.68
2022-08-05T00:09:57.347Z,1005.67
2022-08-05T00:10:57.336Z,1005.69
2022-08-05T00:12:56.636Z,1005.63
2022-08-05T00:13:53.166Z,1005.66
2022-08-05T00:15:57.587Z,1005.68
2022-08-05T00:16:52.821Z,1005.63
2022-08-05T00:18:39.380Z,1005.63
2022-08-05T00:19:44.068Z,1005.62
2022-08-05T00:21:35.887Z,1005.62
2022-08-05T00:22:33.519Z,1005.66
2022-08-05T00:24:30.738Z,1005.62
2022-08-05T00:25:27.604Z,1005.61
2022-08-05T00:27:21.631Z,1005.58
2022-08-05T00:28:29.663Z,1005.57
2022-08-05T00:30:15.427Z,1005.50
2022-08-05T00:31:15.420Z,1005.50
2022-08-05T00:33:15.698Z,1005.46
2022-08-05T00:34:56.488Z,1005.44
2022-08-05T00:36:16.400Z,1005.40
2022-08-05T00:37:11.496Z,1005.39
2022-08-05T00:38:59.325Z,1005.38
2022-08-05T00:39:58.682Z,1005.34
2022-08-05T00:41:55.494Z,1005.32
2022-08-05T00:42:51.666Z,1005.31
2022-08-05T00:44:45.764Z,1005.29
2022-08-05T00:45:45.748Z,1005.25
2022-08-05T00:47:56.818Z,1005.18
2022-08-05T00:48:51.530Z,1005.21
2022-08-05T00:50:34.080Z,1005.21
2022-08-05T00:51:50.023Z,1005.23
2022-08-05T00:54:00.467Z,1005.25
2022-08-05T00:54:30.196Z,1005.26
2022-08-05T00:56:22.730Z,1005.29
2022-08-05T00:57:22.493Z,1005.32
2022-08-05T00:59:16.417Z,1005.29
2022-08-05T01:00:16.914Z,1005.33
2022-08-05T01:02:10.497Z,1005.30
2022-08-05T01:03:10.492Z,1005.31
2022-08-05T01:05:10.190Z,1005.27
2022-08-05T01:06:05.714Z,1005.31
2022-08-05T01:08:40.453Z,1005.43
2022-08-05T01:08:59.615Z,1005.46
2022-08-05T01:10:53.854Z,1005.44
2022-08-05T01:11:53.844Z,1005.47
2022-08-05T01:13:58.511Z,1005.43
2022-08-05T01:14:47.915Z,1005.42
2022-08-05T01:16:42.478Z,1005.42
2022-08-05T01:17:44.104Z,1005.45
2022-08-05T01:19:56.489Z,1005.48
2022-08-05T01:20:36.110Z,1005.48
2022-08-05T01:22:30.152Z,1005.54
2022-08-05T01:23:34.715Z,1005.59
2022-08-05T01:25:24.282Z,1005.63
2022-08-05T01:26:26.350Z,1005.67
2022-08-05T01:28:18.316Z,1005.70
2022-08-05T01:29:18.298Z,1005.69
2022-08-05T01:31:12.030Z,1005.70
2022-08-05T01:32:12.392Z,1005.69
2022-08-05T01:34:06.097Z,1005.61
2022-08-05T01:35:10.685Z,1005.56
2022-08-05T01:37:00.513Z,1005.52
2022-08-05T01:38:00.220Z,1005.47
2022-08-05T01:39:54.339Z,1005.39
2022-08-05T01:40:54.240Z,1005.36
2022-08-05T01:42:48.057Z,1005.33
2022-08-05T01:43:48.894Z,1005.29
2022-08-05T01:45:43.079Z,1005.23
2022-08-05T01:46:46.600Z,1005.24
2022-08-05T01:48:36.286Z,1005.16
2022-08-05T01:49:59.991Z,1005.10
2022-08-05T01:51:30.480Z,1005.10
2022-08-05T01:52:30.460Z,1005.10
2022-08-05T01:54:27.161Z,1005.00
2022-08-05T01:55:24.546Z,1005.01
2022-08-05T01:58:11.542Z,1004.90
2022-08-05T01:58:18.650Z,1004.88
2022-08-05T02:00:12.747Z,1004.93
2022-08-05T02:01:12.739Z,1005.01
2022-08-05T02:03:07.895Z,1005.28
2022-08-05T02:04:07.887Z,1005.37
2022-08-05T02:06:03.530Z,1005.34
2022-08-05T02:07:03.415Z,1005.33
2022-08-05T02:08:58.369Z,1005.31
2022-08-05T02:09:56.088Z,1005.36
2022-08-05T02:11:52.241Z,1005.35
2022-08-05T02:12:50.992Z,1005.33
2022-08-05T02:14:47.114Z,1005.42
2022-08-05T02:15:46.301Z,1005.44
2022-08-05T02:18:31.604Z,1005.56
2022-08-05T02:18:40.597Z,1005.62
2022-08-05T02:20:38.924Z,1005.79
2022-08-05T02:21:40.316Z,1005.90
2022-08-05T02:23:28.612Z,1006.18
2022-08-05T02:24:28.602Z,1006.36
2022-08-05T02:26:22.689Z,1006.60
2022-08-05T02:27:29.903Z,1006.73
2022-08-05T02:29:21.358Z,1006.92
2022-08-05T02:30:16.741Z,1007.00
2022-08-05T02:32:11.915Z,1007.08
2022-08-05T02:33:11.902Z,1007.18
2022-08-05T02:35:13.303Z,1007.21
2022-08-05T02:36:06.024Z,1007.22
2022-08-05T02:38:00.405Z,1007.22
2022-08-05T02:39:00.185Z,1007.19
2022-08-05T02:40:54.275Z,1007.15
2022-08-05T02:41:57.882Z,1007.15
2022-08-05T02:44:06.615Z,1007.12
2022-08-05T02:44:48.380Z,1007.15
2022-08-05T02:46:53.484Z,1007.20
2022-08-05T02:48:07.458Z,1007.21
2022-08-05T02:49:40.391Z,1007.26
2022-08-05T02:50:37.595Z,1007.22
2022-08-05T02:52:31.642Z,1007.16
2022-08-05T02:53:35.886Z,1007.19
2022-08-05T02:55:54.420Z,1007.18
2022-08-05T02:56:25.735Z,1007.21
2022-08-05T02:58:20.652Z,1007.38
2022-08-05T02:59:19.823Z,1007.44
2022-08-05T03:01:13.933Z,1007.44
2022-08-05T03:02:13.893Z,1007.46
2022-08-05T03:04:11.994Z,1007.44
2022-08-05T03:05:07.732Z,1007.40
2022-08-05T03:07:01.814Z,1007.38
2022-08-05T03:08:08.679Z,1007.42
2022-08-05T03:09:55.888Z,1007.43
2022-08-05T03:11:41.156Z,1007.43
2022-08-05T03:12:51.984Z,1007.46
2022-08-05T03:14:02.864Z,1007.44
2022-08-05T03:15:45.184Z,1007.27
2022-08-05T03:16:45.178Z,1007.16
2022-08-05T03:18:39.276Z,1007.11
2022-08-05T03:19:39.258Z,1007.14
2022-08-05T03:21:33.346Z,1007.32
2022-08-05T03:22:33.339Z,1007.37
2022-08-05T03:24:29.915Z,1007.40
2022-08-05T03:25:32.786Z,1007.44
2022-08-05T03:27:21.996Z,1007.46
2022-08-05T03:28:21.526Z,1007.39
2022-08-05T03:30:15.525Z,1007.39
2022-08-05T03:31:18.273Z,1007.38
2022-08-05T03:33:09.656Z,1007.40
2022-08-05T03:34:09.643Z,1007.42
2022-08-05T03:36:03.753Z,1007.45
2022-08-05T03:37:03.747Z,1007.49
2022-08-05T03:38:58.086Z,1007.57
2022-08-05T03:40:00.917Z,1007.54
2022-08-05T03:41:52.668Z,1007.54
2022-08-05T03:42:52.878Z,1007.49
2022-08-05T03:44:46.251Z,1007.49
2022-08-05T03:45:57.596Z,1007.51
2022-08-05T03:47:41.431Z,1007.57
2022-08-05T03:48:40.303Z,1007.55
2022-08-05T03:50:34.390Z,1007.54
2022-08-05T03:52:48.275Z,1007.54
2022-08-05T03:55:52.077Z,1007.43
2022-08-05T03:55:53.478Z,1007.49
2022-08-05T03:56:27.935Z,1007.39
2022-08-05T03:57:42.330Z,1007.40
2022-08-05T03:59:20.339Z,1007.36
2022-08-05T04:00:17.710Z,1007.33
2022-08-05T04:02:17.324Z,1007.28
2022-08-05T04:03:14.943Z,1007.22
2022-08-05T04:05:05.999Z,1007.21
2022-08-05T04:06:05.994Z,1007.12
2022-08-05T04:08:00.105Z,1007.00
2022-08-05T04:09:00.084Z,1006.90
2022-08-05T04:10:55.242Z,1006.77
2022-08-05T04:11:56.394Z,1006.77
2022-08-05T04:13:53.438Z,1006.81
2022-08-05T04:14:49.330Z,1006.84
2022-08-05T04:16:43.400Z,1006.85
2022-08-05T04:17:56.659Z,1006.82
2022-08-05T04:19:38.588Z,1006.74
2022-08-05T04:20:38.579Z,1006.66
2022-08-05T04:22:33.331Z,1006.56
2022-08-05T04:23:57.389Z,1006.47
2022-08-05T04:25:57.057Z,1006.36
2022-08-05T04:26:32.263Z,1006.28
2022-08-05T04:28:30.667Z,1006.11
2022-08-05T04:29:22.580Z,1005.97
2022-08-05T04:31:16.733Z,1005.56
2022-08-05T04:32:29.659Z,1005.37
2022-08-05T04:34:31.357Z,1005.22
2022-08-05T04:35:17.712Z,1005.29
2022-08-05T04:37:04.902Z,1005.49
2022-08-05T04:38:06.458Z,1005.56
2022-08-05T04:39:59.069Z,1005.38
2022-08-05T04:40:59.051Z,1005.30
2022-08-05T04:42:53.368Z,1005.21
2022-08-05T04:43:53.360Z,1005.28
2022-08-05T04:45:48.846Z,1005.40
2022-08-05T04:46:47.404Z,1005.51
2022-08-05T04:48:41.483Z,1005.58
2022-08-05T04:50:01.290Z,1005.54
2022-08-05T04:51:35.583Z,1005.44
2022-08-05T04:52:35.575Z,1005.35
2022-08-05T04:54:29.304Z,1005.33
2022-08-05T04:56:14.702Z,1005.38
2022-08-05T04:57:23.558Z,1005.38
2022-08-05T04:58:23.340Z,1005.46
2022-08-05T05:00:17.425Z,1005.47
2022-08-05T05:01:59.664Z,1005.47
2022-08-05T05:03:11.565Z,1005.45
2022-08-05T05:04:11.504Z,1005.48
2022-08-05T05:06:39.072Z,1005.50
2022-08-05T05:07:09.527Z,1005.59
2022-08-05T05:08:59.758Z,1005.87
2022-08-05T05:09:59.737Z,1006.06
2022-08-05T05:11:56.859Z,1006.25
2022-08-05T05:12:53.820Z,1006.31
2022-08-05T05:14:49.567Z,1006.35
2022-08-05T05:15:57.268Z,1006.38
2022-08-05T05:17:56.645Z,1006.51
2022-08-05T05:18:56.968Z,1006.55
2022-08-05T05:20:36.365Z,1006.51
2022-08-05T05:21:36.347Z,1006.53
2022-08-05T05:24:02.205Z,1006.65
2022-08-05T05:24:57.214Z,1006.70
2022-08-05T05:26:28.075Z,1006.71
2022-08-05T05:27:24.747Z,1006.75
2022-08-05T05:29:18.561Z,1006.73
2022-08-05T05:30:31.341Z,1006.73
2022-08-05T05:32:15.718Z,1006.78
2022-08-05T05:33:17.177Z,1006.78
2022-08-05T05:35:06.736Z,1006.69
2022-08-05T05:36:06.721Z,1006.63
2022-08-05T05:38:02.101Z,1006.74
2022-08-05T05:39:00.841Z,1006.74
2022-08-05T05:40:54.974Z,1006.78
2022-08-05T05:41:54.891Z,1006.76
2022-08-05T05:43:57.957Z,1006.86
2022-08-05T05:44:49.943Z,1006.87
2022-08-05T05:46:44.150Z,1006.92
2022-08-05T05:48:05.707Z,1006.98
2022-08-05T05:49:38.283Z,1007.05
2022-08-05T05:50:44.102Z,1007.06
2022-08-05T05:52:38.035Z,1007.03
2022-08-05T05:53:32.334Z,1007.02
2022-08-05T05:55:52.030Z,1006.91
2022-08-05T05:56:31.880Z,1006.89
2022-08-05T05:58:20.533Z,1006.95
2022-08-05T05:59:20.526Z,1007.01
2022-08-05T06:01:15.348Z,1006.98
2022-08-05T06:02:15.038Z,1006.95
2022-08-05T06:04:11.725Z,1007.00
2022-08-05T06:05:10.142Z,1007.02
2022-08-05T06:07:03.212Z,1006.99
2022-08-05T06:08:03.848Z,1006.98
2022-08-05T06:10:00.535Z,1006.99
2022-08-05T06:10:58.274Z,1006.93
2022-08-05T06:12:52.364Z,1006.89
2022-08-05T06:13:54.099Z,1006.85
2022-08-05T06:16:30.385Z,1006.76
2022-08-05T06:16:46.450Z,1006.71
2022-08-05T06:18:40.547Z,1006.70
2022-08-05T06:19:40.541Z,1006.73
2022-08-05T06:21:36.462Z,1006.77
2022-08-05T06:22:34.653Z,1006.85
2022-08-05T06:24:28.795Z,1006.81
2022-08-05T06:26:00.115Z,1006.85
2022-08-05T06:28:11.032Z,1006.88
2022-08-05T06:28:23.282Z,1006.87
2022-08-05T06:30:20.153Z,1006.87
2022-08-05T06:31:18.039Z,1006.91
2022-08-05T06:33:10.989Z,1006.99
2022-08-05T06:34:10.806Z,1007.04
2022-08-05T06:36:10.114Z,1007.05
2022-08-05T06:37:04.539Z,1007.07
2022-08-05T06:38:58.666Z,1007.05
2022-08-05T06:39:58.621Z,1007.04
2022-08-05T06:41:53.807Z,1007.00
2022-08-05T06:42:53.791Z,1007.00
2022-08-05T06:44:49.170Z,1006.96
2022-08-05T06:46:03.762Z,1006.96
2022-08-05T06:48:36.531Z,1007.02
2022-08-05T06:48:54.725Z,1007.06
2022-08-05T06:50:36.082Z,1007.09
2022-08-05T06:51:36.076Z,1007.11
2022-08-05T06:53:31.177Z,1007.17
2022-08-05T06:54:31.162Z,1007.19
2022-08-05T06:56:26.666Z,1007.23
2022-08-05T06:57:57.900Z,1007.25
2022-08-05T06:59:19.416Z,1007.24
2022-08-05T07:00:22.471Z,1007.25
2022-08-05T07:02:13.576Z,1007.26
2022-08-05T07:03:13.564Z,1007.23
2022-08-05T07:05:14.388Z,1007.23
2022-08-05T07:06:14.157Z,1007.27
2022-08-05T07:08:01.803Z,1007.33
2022-08-05T07:09:04.199Z,1007.38
2022-08-05T07:10:55.875Z,1007.37
2022-08-05T07:11:55.874Z,1007.41
2022-08-05T07:13:59.615Z,1007.41
2022-08-05T07:14:49.965Z,1007.46
2022-08-05T07:18:00.303Z,1007.45
2022-08-05T07:18:08.591Z,1007.48
2022-08-05T07:20:16.876Z,1007.48
2022-08-05T07:20:38.966Z,1007.41
2022-08-05T07:22:32.356Z,1007.48
2022-08-05T07:23:32.340Z,1007.53
2022-08-05T07:25:55.017Z,1007.57
2022-08-05T07:26:26.502Z,1007.59
2022-08-05T07:28:20.608Z,1007.58
2022-08-05T07:29:20.593Z,1007.58
2022-08-05T07:31:14.714Z,1007.61
2022-08-05T07:32:14.801Z,1007.65
2022-08-05T07:34:08.742Z,1007.67
2022-08-05T07:35:55.582Z,1007.65
2022-08-05T07:37:02.931Z,1007.67
2022-08-05T07:38:02.915Z,1007.71
2022-08-05T07:40:26.258Z,1007.76
2022-08-05T07:41:00.303Z,1007.77
2022-08-05T07:42:51.054Z,1007.79
2022-08-05T07:43:51.040Z,1007.76
2022-08-05T07:45:57.555Z,1007.76
2022-08-05T07:46:45.984Z,1007.77
2022-08-05T07:49:02.386Z,1007.79
2022-08-05T07:49:43.542Z,1007.79
2022-08-05T07:51:40.297Z,1007.83
2022-08-05T07:52:33.262Z,1007.83
2022-08-05T07:54:30.843Z,1007.90
2022-08-05T07:55:44.484Z,1007.91
2022-08-05T07:57:52.316Z,1007.90
2022-08-05T07:58:54.786Z,1007.93
2022-08-05T08:00:16.427Z,1008.00
2022-08-05T08:01:16.471Z,1008.02
2022-08-05T08:03:14.744Z,1008.05
2022-08-05T08:04:10.543Z,1008.04
2022-08-05T08:06:05.678Z,1008.08
2022-08-05T08:07:07.214Z,1008.13
2022-08-05T08:08:59.743Z,1008.17
2022-08-05T08:09:59.724Z,1008.15
2022-08-05T08:12:00.102Z,1008.19
2022-08-05T08:12:53.838Z,1008.15
2022-08-05T08:14:48.033Z,1008.21
2022-08-05T08:16:35.081Z,1008.25
2022-08-05T08:17:46.235Z,1008.24
2022-08-05T08:18:42.114Z,1008.31
2022-08-05T08:20:43.691Z,1008.34
2022-08-05T08:21:36.215Z,1008.31
2022-08-05T08:24:02.265Z,1008.34
2022-08-05T08:24:51.471Z,1008.40
2022-08-05T08:26:29.582Z,1008.41
2022-08-05T08:27:35.678Z,1008.47
2022-08-05T08:30:03.268Z,1008.52
2022-08-05T08:30:32.237Z,1008.53
2022-08-05T08:32:13.563Z,1008.56
2022-08-05T08:33:14.503Z,1008.53
2022-08-05T08:35:07.777Z,1008.44
2022-08-05T08:38:01.849Z,1008.41
2022-08-05T08:39:01.914Z,1008.40
2022-08-05T08:40:55.909Z,1008.39
2022-08-05T08:41:59.843Z,1008.36
2022-08-05T08:45:18.223Z,1008.36
2022-08-05T08:45:23.263Z,1008.43
2022-08-05T08:46:43.985Z,1008.44
2022-08-05T08:48:05.509Z,1008.44
2022-08-05T08:50:07.820Z,1008.51
2022-08-05T08:51:03.333Z,1008.51
2022-08-05T08:52:32.102Z,1008.52
2022-08-05T08:53:32.087Z,1008.50
2022-08-05T08:55:32.017Z,1008.54
2022-08-05T08:56:26.972Z,1008.58
2022-08-05T08:58:20.416Z,1008.53
2022-08-05T08:59:20.943Z,1008.52
2022-08-05T09:01:17.011Z,1008.50
2022-08-05T09:02:18.059Z,1008.41
2022-08-05T09:04:10.599Z,1008.35
2022-08-05T09:05:17.301Z,1008.34
2022-08-05T09:07:04.727Z,1008.27
2022-08-05T09:08:04.721Z,1008.28
2022-08-05T09:09:59.238Z,1008.30
2022-08-05T09:10:59.226Z,1008.28
2022-08-05T09:12:53.366Z,1008.27
2022-08-05T09:14:09.664Z,1008.27
2022-08-05T09:15:47.441Z,1008.26
2022-08-05T09:16:48.947Z,1008.30
2022-08-05T09:18:43.864Z,1008.31
2022-08-05T09:20:01.375Z,1008.31
2022-08-05T09:22:22.172Z,1008.38
2022-08-05T09:22:36.848Z,1008.31
2022-08-05T09:24:30.763Z,1008.35
2022-08-05T09:26:01.958Z,1008.33
2022-08-05T09:28:05.095Z,1008.42
2022-08-05T09:28:32.296Z,1008.42
2022-08-05T09:30:23.238Z,1008.37
2022-08-05T09:31:43.353Z,1008.35
2022-08-05T09:33:15.250Z,1008.38
2022-08-05T09:34:13.988Z,1008.41
2022-08-05T09:36:11.872Z,1008.48
2022-08-05T09:37:15.176Z,1008.49
2022-08-05T09:39:02.372Z,1008.52
2022-08-05T09:40:02.303Z,1008.57
2022-08-05T09:41:56.464Z,1008.66
2022-08-05T09:42:56.253Z,1008.62
2022-08-05T09:44:50.669Z,1008.66
2022-08-05T09:46:07.397Z,1008.66
2022-08-05T09:47:55.048Z,1008.65
2022-08-05T09:48:55.475Z,1008.69
2022-08-05T09:50:44.024Z,1008.78
2022-08-05T09:51:39.917Z,1008.76
2022-08-05T09:53:53.461Z,1008.85
2022-08-05T09:54:33.704Z,1008.87
2022-08-05T09:56:27.791Z,1008.86
2022-08-05T09:57:27.787Z,1008.86
2022-08-05T09:59:21.890Z,1008.83
2022-08-05T10:00:21.875Z,1008.85
2022-08-05T10:02:17.132Z,1008.82
2022-08-05T10:03:16.968Z,1008.85
2022-08-05T10:05:11.195Z,1008.83
2022-08-05T10:06:14.667Z,1008.82
2022-08-05T10:08:36.136Z,1008.94
2022-08-05T10:09:05.251Z,1008.95
2022-08-05T10:10:59.431Z,1009.02
2022-08-05T10:11:59.427Z,1009.01
2022-08-05T10:13:54.666Z,1009.11
2022-08-05T10:14:54.315Z,1009.14
2022-08-05T10:16:53.123Z,1009.11
2022-08-05T10:17:47.586Z,1009.20
2022-08-05T10:20:03.903Z,1009.21
2022-08-05T10:20:41.682Z,1009.25
2022-08-05T10:22:37.831Z,1009.33
2022-08-05T10:24:00.074Z,1009.34
2022-08-05T10:25:31.067Z,1009.40
2022-08-05T10:26:31.602Z,1009.40
2022-08-05T10:28:30.404Z,1009.44
2022-08-05T10:30:41.046Z,1009.46
2022-08-05T10:32:53.219Z,1009.49
2022-08-05T10:32:54.287Z,1009.47
2022-08-05T10:34:14.438Z,1009.51
2022-08-05T10:35:14.422Z,1009.55
2022-08-05T10:37:08.133Z,1009.56
2022-08-05T10:38:08.365Z,1009.62
2022-08-05T10:40:17.379Z,1009.63
2022-08-05T10:41:02.273Z,1009.63
2022-08-05T10:42:56.270Z,1009.72
2022-08-05T10:43:56.262Z,1009.67
2022-08-05T10:45:50.449Z,1009.76
2022-08-05T10:46:51.051Z,1009.77
2022-08-05T10:48:58.086Z,1009.82
2022-08-05T10:49:49.144Z,1009.83
2022-08-05T10:51:40.239Z,1009.84
2022-08-05T10:52:38.679Z,1009.86
2022-08-05T10:54:34.954Z,1009.93
2022-08-05T10:55:32.773Z,1009.88
2022-08-05T10:57:26.774Z,1009.97
2022-08-05T10:58:47.690Z,1009.96
2022-08-05T11:00:21.614Z,1010.00
2022-08-05T11:01:28.337Z,1010.05
2022-08-05T11:03:22.963Z,1010.06
2022-08-05T11:04:15.853Z,1010.05
2022-08-05T11:06:16.184Z,1010.05
2022-08-05T11:07:09.982Z,1010.08
2022-08-05T11:09:04.071Z,1010.15
2022-08-05T11:10:09.947Z,1010.17
2022-08-05T11:11:58.138Z,1010.16
2022-08-05T11:12:58.122Z,1010.17
2022-08-05T11:15:01.259Z,1010.16
2022-08-05T11:16:00.277Z,1010.19
2022-08-05T11:17:59.101Z,1010.24
2022-08-05T11:18:47.324Z,1010.27
2022-08-05T11:20:41.561Z,1010.37
2022-08-05T11:21:49.345Z,1010.37
2022-08-05T11:24:02.492Z,1010.41
2022-08-05T11:24:35.477Z,1010.46
2022-08-05T11:26:32.837Z,1010.42
2022-08-05T11:27:29.558Z,1010.45
2022-08-05T11:29:23.645Z,1010.52
2022-08-05T11:30:23.637Z,1010.59
2022-08-05T11:32:17.842Z,1010.63
2022-08-05T11:33:21.209Z,1010.64
2022-08-05T11:35:11.945Z,1010.65
2022-08-05T11:36:11.928Z,1010.67
2022-08-05T11:38:37.114Z,1010.68
2022-08-05T11:39:06.082Z,1010.66
2022-08-05T11:41:12.818Z,1010.72
2022-08-05T11:42:04.169Z,1010.77
2022-08-05T11:44:06.365Z,1010.78
2022-08-05T11:44:54.448Z,1010.82
2022-08-05T11:47:09.322Z,1010.80
2022-08-05T11:47:50.521Z,1010.87
2022-08-05T11:49:43.466Z,1010.88
2022-08-05T11:50:43.447Z,1010.90
2022-08-05T11:52:37.537Z,1010.88
2022-08-05T11:53:40.875Z,1010.91
2022-08-05T11:55:36.662Z,1010.89
2022-08-05T11:56:40.985Z,1010.90
2022-08-05T11:58:25.665Z,1010.89
2022-08-05T11:59:25.659Z,1010.92
2022-08-05T12:01:19.766Z,1010.92
2022-08-05T12:02:30.637Z,1010.99
2022-08-05T12:04:13.870Z,1011.01
2022-08-05T12:05:18.500Z,1010.97
2022-08-05T12:07:08.130Z,1010.98
2022-08-05T12:08:11.571Z,1011.01
2022-08-05T12:10:09.000Z,1010.99
2022-08-05T12:11:05.468Z,1010.98
2022-08-05T12:12:59.775Z,1010.98
2022-08-05T12:13:58.547Z,1010.98
2022-08-05T12:15:50.468Z,1010.97
2022-08-05T12:16:50.431Z,1011.06
2022-08-05T12:18:52.338Z,1010.86
2022-08-05T12:20:27.241Z,1010.97
2022-08-05T12:21:38.949Z,1010.96
2022-08-05T12:22:38.573Z,1010.97
2022-08-05T12:24:32.675Z,1011.00
2022-08-05T12:25:32.659Z,1011.01
2022-08-05T12:27:26.874Z,1011.00
2022-08-05T12:28:26.780Z,1010.98
2022-08-05T12:30:21.519Z,1011.13
2022-08-05T12:31:23.738Z,1011.06
2022-08-05T12:33:27.622Z,1011.13
2022-08-05T12:34:20.386Z,1011.15
2022-08-05T12:36:10.067Z,1011.10
2022-08-05T12:37:10.027Z,1011.14
2022-08-05T12:39:05.561Z,1011.19
2022-08-05T12:40:10.667Z,1011.23
2022-08-05T12:41:58.368Z,1011.27
2022-08-05T12:42:58.355Z,1011.28
2022-08-05T12:44:52.602Z,1011.24
2022-08-05T12:45:52.581Z,1011.28
2022-08-05T12:48:17.168Z,1011.30
2022-08-05T12:48:46.375Z,1011.29
2022-08-05T12:50:40.528Z,1011.32
2022-08-05T12:52:12.830Z,1011.32
2022-08-05T12:53:37.094Z,1011.35
2022-08-05T12:54:34.609Z,1011.37
2022-08-05T12:56:35.321Z,1011.40
2022-08-05T12:57:28.719Z,1011.46
2022-08-05T12:59:27.546Z,1011.42
2022-08-05T13:02:02.843Z,1011.39
2022-08-05T13:02:17.928Z,1011.44
2022-08-05T13:03:17.965Z,1011.43
2022-08-05T13:05:14.448Z,1011.49
2022-08-05T13:06:11.993Z,1011.47
2022-08-05T13:08:08.630Z,1011.49
2022-08-05T13:09:06.096Z,1011.50
2022-08-05T13:11:00.190Z,1011.54
2022-08-05T13:12:03.286Z,1011.52
2022-08-05T13:14:05.886Z,1011.58
2022-08-05T13:15:05.248Z,1011.57
2022-08-05T13:16:48.473Z,1011.59
2022-08-05T13:17:48.468Z,1011.56
2022-08-05T13:19:52.863Z,1011.53
2022-08-05T13:20:42.551Z,1011.53
2022-08-05T13:22:36.619Z,1011.50
2022-08-05T13:23:36.613Z,1011.53
2022-08-05T13:25:59.022Z,1011.52
2022-08-05T13:26:30.674Z,1011.51
2022-08-05T13:28:24.792Z,1011.57
2022-08-05T13:29:37.310Z,1011.57
2022-08-05T13:31:19.891Z,1011.58
2022-08-05T13:32:21.569Z,1011.59
2022-08-05T13:34:22.196Z,1011.56
2022-08-05T13:35:13.996Z,1011.57
2022-08-05T13:37:09.104Z,1011.55
2022-08-05T13:38:09.090Z,1011.56
2022-08-05T13:40:15.013Z,1011.53
2022-08-05T13:41:03.366Z,1011.52
2022-08-05T13:42:57.252Z,1011.50
2022-08-05T13:43:57.244Z,1011.55
2022-08-05T13:45:51.375Z,1011.42
2022-08-05T13:47:02.382Z,1011.48
2022-08-05T13:48:57.438Z,1011.42
2022-08-05T13:49:46.583Z,1011.46
2022-08-05T13:51:41.795Z,1011.48
2022-08-05T13:52:41.256Z,1011.50
2022-08-05T13:54:34.674Z,1011.51
2022-08-05T13:55:40.714Z,1011.51
2022-08-05T13:57:51.136Z,1011.53
2022-08-05T13:58:30.240Z,1011.54
2022-08-05T14:00:27.728Z,1011.56
2022-08-05T14:01:27.502Z,1011.59
2022-08-05T14:03:17.924Z,1011.57
2022-08-05T14:04:17.901Z,1011.53
2022-08-05T14:06:26.322Z,1011.57
2022-08-05T14:07:25.838Z,1011.59
2022-08-05T14:09:08.543Z,1011.58
2022-08-05T14:10:05.764Z,1011.56
2022-08-05T14:12:04.047Z,1011.53
2022-08-05T14:13:00.080Z,1011.53
2022-08-05T14:14:54.182Z,1011.56
2022-08-05T14:16:08.157Z,1011.51
2022-08-05T14:17:48.274Z,1011.54
2022-08-05T14:18:48.266Z,1011.55
2022-08-05T14:20:42.394Z,1011.51
2022-08-05T14:22:10.416Z,1011.54
2022-08-05T14:23:36.805Z,1011.55
2022-08-05T14:24:36.497Z,1011.50
2022-08-05T14:26:37.012Z,1011.44
2022-08-05T14:27:30.562Z,1011.43
2022-08-05T14:29:25.721Z,1011.46
2022-08-05T14:30:26.716Z,1011.45
2022-08-05T14:32:27.090Z,1011.46
2022-08-05T14:33:22.997Z,1011.50
2022-08-05T14:35:14.840Z,1011.46
2022-08-05T14:36:14.824Z,1011.47
2022-08-05T14:38:27.591Z,1011.46
2022-08-05T14:39:10.910Z,1011.45
2022-08-05T14:41:05.676Z,1011.45
2022-08-05T14:42:21.372Z,1011.52
2022-08-05T14:44:09.398Z,1011.57
2022-08-05T14:44:58.096Z,1011.56
2022-08-05T14:46:52.191Z,1011.57
2022-08-05T14:48:03.183Z,1011.60
2022-08-05T14:49:59.223Z,1011.55
2022-08-05T14:50:46.252Z,1011.49
2022-08-05T14:52:52.504Z,1011.45
2022-08-05T14:53:44.568Z,1011.48
2022-08-05T14:55:39.342Z,1011.46
2022-08-05T14:56:35.453Z,1011.50
2022-08-05T14:58:29.553Z,1011.48
2022-08-05T14:59:35.751Z,1011.42
2022-08-05T15:01:48.374Z,1011.39
2022-08-05T15:02:23.832Z,1011.41
2022-08-05T15:04:20.620Z,1011.45
2022-08-05T15:05:17.858Z,1011.43
2022-08-05T15:08:08.856Z,1011.44
2022-08-05T15:08:16.028Z,1011.45
2022-08-05T15:10:09.747Z,1011.42
2022-08-05T15:11:07.130Z,1011.39
2022-08-05T15:13:03.630Z,1011.41
2022-08-05T15:14:01.204Z,1011.44
2022-08-05T15:15:56.532Z,1011.47
2022-08-05T15:16:55.285Z,1011.48
2022-08-05T15:18:49.415Z,1011.46
2022-08-05T15:19:49.414Z,1011.50
2022-08-05T15:21:43.496Z,1011.53
2022-08-05T15:22:44.722Z,1011.51
2022-08-05T15:24:39.632Z,1011.55
2022-08-05T15:25:51.134Z,1011.53
2022-08-05T15:27:32.233Z,1011.54
2022-08-05T15:28:31.610Z,1011.59
2022-08-05T15:30:26.349Z,1011.58
2022-08-05T15:31:35.000Z,1011.59
2022-08-05T15:34:04.030Z,1011.63
2022-08-05T15:34:32.227Z,1011.60
2022-08-05T15:36:17.782Z,1011.70
2022-08-05T15:37:19.417Z,1011.65
2022-08-05T15:40:58.832Z,1011.70
2022-08-05T15:41:01.708Z,1011.64
2022-08-05T15:42:28.567Z,1011.70
2022-08-05T15:43:11.006Z,1011.70
2022-08-05T15:44:56.894Z,1011.76
2022-08-05T15:46:00.443Z,1011.69
2022-08-05T15:47:50.977Z,1011.74
2022-08-05T15:48:54.341Z,1011.70
2022-08-05T15:50:45.583Z,1011.71
2022-08-05T15:52:13.518Z,1011.74
2022-08-05T15:53:50.867Z,1011.80
2022-08-05T15:54:40.217Z,1011.81
2022-08-05T15:56:34.944Z,1011.80
2022-08-05T15:57:34.933Z,1011.83
2022-08-05T15:59:29.001Z,1011.86
2022-08-05T16:00:50.990Z,1011.85
2022-08-05T16:02:25.609Z,1011.85
2022-08-05T16:03:23.174Z,1011.83
2022-08-05T16:05:17.434Z,1011.89
2022-08-05T16:06:19.932Z,1011.90
2022-08-05T16:08:11.552Z,1011.90
2022-08-05T16:09:11.545Z,1011.92
2022-08-05T16:11:05.641Z,1011.95
2022-08-05T16:12:05.631Z,1011.91
2022-08-05T16:13:59.753Z,1011.99
2022-08-05T16:14:59.748Z,1012.01
2022-08-05T16:16:54.082Z,1012.01
2022-08-05T16:17:57.812Z,1012.03
2022-08-05T16:20:04.654Z,1011.99
2022-08-05T16:20:48.152Z,1011.99
2022-08-05T16:22:42.242Z,1012.00
2022-08-05T16:23:53.576Z,1011.96
2022-08-05T16:25:36.328Z,1011.98
2022-08-05T16:26:36.319Z,1011.99
2022-08-05T16:28:30.410Z,1011.98
2022-08-05T16:29:31.210Z,1012.01
2022-08-05T16:31:24.557Z,1012.02
2022-08-05T16:32:29.315Z,1011.99
2022-08-05T16:34:18.593Z,1012.00
2022-08-05T16:35:18.583Z,1012.01
2022-08-05T16:38:03.581Z,1012.05
2022-08-05T16:38:23.970Z,1012.09
2022-08-05T16:40:13.554Z,1012.12
2022-08-05T16:42:12.077Z,1012.13
2022-08-05T16:43:01.038Z,1012.13
2022-08-05T16:44:01.033Z,1012.13
2022-08-05T16:46:05.057Z,1012.16
2022-08-05T16:46:55.802Z,1012.22
2022-08-05T16:48:49.276Z,1012.23
2022-08-05T16:49:49.272Z,1012.26
2022-08-05T16:51:51.000Z,1012.27
2022-08-05T16:52:46.023Z,1012.32
2022-08-05T16:54:37.455Z,1012.34
2022-08-05T16:55:46.780Z,1012.32
2022-08-05T16:57:59.907Z,1012.35
2022-08-05T16:58:31.687Z,1012.35
2022-08-05T17:00:34.865Z,1012.37
2022-08-05T17:01:27.833Z,1012.35
2022-08-05T17:03:21.851Z,1012.37
2022-08-05T17:04:21.855Z,1012.37
2022-08-05T17:06:17.309Z,1012.34
2022-08-05T17:07:17.296Z,1012.35
2022-08-05T17:09:11.438Z,1012.35
2022-08-05T17:10:11.432Z,1012.35
2022-08-05T17:12:05.551Z,1012.37
2022-08-05T17:13:05.537Z,1012.38
2022-08-05T17:14:59.600Z,1012.41
2022-08-05T17:16:19.728Z,1012.45
2022-08-05T17:17:54.490Z,1012.43
2022-08-05T17:18:53.754Z,1012.46
2022-08-05T17:20:47.890Z,1012.44
2022-08-05T17:21:51.614Z,1012.45
2022-08-05T17:24:04.665Z,1012.47
2022-08-05T17:24:56.694Z,1012.48
2022-08-05T17:26:36.086Z,1012.52
2022-08-05T17:27:36.074Z,1012.52
2022-08-05T17:29:33.840Z,1012.58
2022-08-05T17:30:30.314Z,1012.60
2022-08-05T17:32:24.435Z,1012.57
2022-08-05T17:33:24.419Z,1012.60
2022-08-05T17:35:20.887Z,1012.61